Time;durP1;ratioP1;P1;durP2;ratioP2;P2;SDS_P1;SDS_P2;PMS_P1;PMS_P2;Temp;Humidity;BMP_temperature;BMP_pressure;BME280_temperature;BME280_humidity;BME280_pressure;Samples;Min_cycle;Max_cycle;Signal;HPM_P1;HPM_P2
2022/09/10 00:01:35;;;;;;;2.80;2.10;;;20.80;55.90;;;;;;5060018;28;21008;-85
2022/09/10 00:04:04;;;;;;;3.90;3.50;;;21.00;55.90;;;;;;5062710;28;20453;-85
2022/09/10 00:06:34;;;;;;;3.37;3.10;;;21.00;55.40;;;;;;5065899;28;20436;-86
2022/09/10 00:09:03;;;;;;;6.50;3.27;;;21.10;55.40;;;;;;5046059;28;20476;-87
2022/09/10 00:11:37;;;;;;;6.17;5.00;;;21.00;55.30;;;;;;5043238;28;20587;-84
2022/09/10 00:14:06;;;;;;;3.97;3.50;;;20.80;55.60;;;;;;5061136;28;20438;-85
2022/09/10 00:16:33;;;;;;;1.70;1.60;;;20.70;56.00;;;;;;5062504;28;21114;-85
2022/09/10 00:19:01;;;;;;;1.97;1.77;;;20.60;56.30;;;;;;5065914;28;20470;-85
2022/09/10 00:21:29;;;;;;;4.93;1.87;;;20.70;56.20;;;;;;5045850;28;20445;-86
2022/09/10 00:23:58;;;;;;;4.23;1.60;;;20.60;56.30;;;;;;5066116;28;20456;-85
2022/09/10 00:26:27;;;;;;;2.40;2.20;;;20.70;56.00;;;;;;5040802;28;20968;-86
2022/09/10 00:28:58;;;;;;;2.13;1.90;;;20.80;55.90;;;;;;5029870;28;20492;-84
2022/09/10 00:31:25;;;;;;;1.40;1.30;;;20.90;55.80;;;;;;5033817;28;20493;-87
2022/09/10 00:33:53;;;;;;;1.73;0.90;;;20.60;56.40;;;;;;5029225;28;20448;-85
2022/09/10 00:36:23;;;;;;;1.30;1.20;;;20.50;56.50;;;;;;5049407;28;20539;-86
2022/09/10 00:38:53;;;;;;;2.40;1.30;;;20.30;57.50;;;;;;5038747;28;20483;-84
2022/09/10 00:41:23;;;;;;;1.43;1.33;;;20.20;57.50;;;;;;5016054;28;20444;-85
2022/09/10 00:43:56;;;;;;;1.60;1.40;;;20.40;57.10;;;;;;5043523;28;21008;-83
2022/09/10 00:46:33;;;;;;;1.60;1.23;;;20.40;57.40;;;;;;5062514;28;20444;-83
2022/09/10 00:49:04;;;;;;;1.10;1.00;;;20.60;56.70;;;;;;5046232;28;21198;-84
2022/09/10 00:51:34;;;;;;;3.87;1.37;;;20.70;56.80;;;;;;5040926;28;20463;-85
2022/09/10 00:54:04;;;;;;;2.57;1.10;;;20.70;57.00;;;;;;5065802;28;20547;-84
2022/09/10 00:56:33;;;;;;;1.77;1.30;;;20.70;56.60;;;;;;5061808;28;20482;-84
2022/09/10 00:59:01;;;;;;;4.20;1.53;;;20.90;56.40;;;;;;5063351;28;20472;-86
2022/09/10 01:01:29;;;;;;;2.17;1.47;;;21.00;55.80;;;;;;5030997;28;20475;-86
2022/09/10 01:03:57;;;;;;;1.40;1.20;;;21.00;55.50;;;;;;5027879;28;20452;-86
2022/09/10 01:06:24;;;;;;;1.23;1.13;;;21.00;55.80;;;;;;5053175;28;20468;-84
2022/09/10 01:08:51;;;;;;;2.57;1.20;;;20.80;56.50;;;;;;5046196;28;20882;-84
2022/09/10 01:11:51;;;;;;;4.40;1.87;;;20.80;56.00;;;;;;5030652;28;20522;-85
2022/09/10 01:14:36;;;;;;;2.70;1.07;;;20.90;56.30;;;;;;5043922;28;20469;-85
2022/09/10 01:17:14;;;;;;;1.40;1.13;;;20.70;56.00;;;;;;5022778;28;20965;-84
2022/09/10 01:20:11;;;;;;;2.43;1.40;;;20.80;56.60;;;;;;5022885;28;20476;-86
2022/09/10 01:22:53;;;;;;;2.93;1.53;;;20.70;56.20;;;;;;5041507;28;20453;-85
2022/09/10 01:25:30;;;;;;;2.67;1.50;;;20.60;56.80;;;;;;5046206;28;21284;-86
2022/09/10 01:28:03;;;;;;;2.43;1.73;;;20.70;56.90;;;;;;5042652;28;20563;-85
2022/09/10 01:30:36;;;;;;;2.53;1.30;;;20.80;56.40;;;;;;5059700;28;20454;-84
2022/09/10 01:33:08;;;;;;;2.30;1.10;;;20.90;55.90;;;;;;5031424;28;20465;-86
2022/09/10 01:35:43;;;;;;;6.40;1.40;;;20.50;56.80;;;;;;5044305;28;20510;-85
2022/09/10 01:38:15;;;;;;;2.80;1.63;;;20.60;56.80;;;;;;5034861;28;20471;-85
2022/09/10 01:40:43;;;;;;;1.50;1.40;;;20.50;56.80;;;;;;5036794;28;20478;-85
2022/09/10 01:43:15;;;;;;;1.50;1.10;;;20.50;56.80;;;;;;5045507;28;20460;-86
2022/09/10 01:46:00;;;;;;;2.37;1.50;;;20.50;56.30;;;;;;5036785;28;20454;-86
2022/09/10 01:49:07;;;;;;;2.57;1.43;;;20.50;56.60;;;;;;5030127;28;20482;-84
2022/09/10 01:51:47;;;;;;;2.60;1.50;;;20.10;57.50;;;;;;5034671;28;20485;-85
2022/09/10 01:54:25;;;;;;;3.80;1.57;;;19.80;58.30;;;;;;5032545;28;20448;-85
2022/09/10 01:57:06;;;;;;;4.20;1.40;;;20.10;58.00;;;;;;5065659;28;20467;-85
2022/09/10 01:59:43;;;;;;;3.17;1.30;;;20.10;57.80;;;;;;5061959;28;20487;-85
2022/09/10 02:02:18;;;;;;;2.83;1.30;;;20.20;57.90;;;;;;5045694;28;22925;-85
2022/09/10 02:04:46;;;;;;;1.77;1.13;;;20.00;57.80;;;;;;5026990;28;20475;-86
2022/09/10 02:07:15;;;;;;;1.73;1.50;;;20.00;58.10;;;;;;5063220;28;20456;-86
2022/09/10 02:09:42;;;;;;;3.93;1.57;;;20.10;57.70;;;;;;5033043;28;20499;-85
2022/09/10 02:12:17;;;;;;;1.60;1.50;;;20.30;57.40;;;;;;5036531;28;20491;-85
2022/09/10 02:15:07;;;;;;;2.60;1.43;;;20.30;57.50;;;;;;5063998;28;20458;-85
2022/09/10 02:17:52;;;;;;;1.87;1.60;;;20.10;57.60;;;;;;5065167;28;20446;-84
2022/09/10 02:20:21;;;;;;;2.13;1.67;;;20.20;57.70;;;;;;5029333;28;20456;-86
2022/09/10 02:22:51;;;;;;;2.03;1.83;;;20.20;57.70;;;;;;5027783;28;20529;-85
2022/09/10 02:25:18;;;;;;;4.37;1.73;;;20.20;57.80;;;;;;5063687;28;20794;-85
2022/09/10 02:27:46;;;;;;;2.80;1.50;;;20.30;57.70;;;;;;5029760;28;20492;-85
2022/09/10 02:30:15;;;;;;;3.33;1.60;;;20.30;57.30;;;;;;5028821;28;20459;-85
2022/09/10 02:32:42;;;;;;;2.03;1.47;;;20.50;57.40;;;;;;5028101;28;20496;-85
2022/09/10 02:35:09;;;;;;;2.47;1.30;;;20.50;56.90;;;;;;5045322;28;20876;-85
2022/09/10 02:37:36;;;;;;;1.70;1.60;;;20.60;56.90;;;;;;5031744;28;20514;-85
2022/09/10 02:40:05;;;;;;;1.80;1.43;;;20.60;56.70;;;;;;5045606;28;21296;-85
2022/09/10 02:42:32;;;;;;;2.07;1.60;;;20.50;56.80;;;;;;5047507;28;20470;-85
2022/09/10 02:45:00;;;;;;;2.00;1.80;;;20.50;57.00;;;;;;5044496;28;20456;-86
2022/09/10 02:47:28;;;;;;;2.83;1.50;;;20.50;57.00;;;;;;5049534;28;20466;-85
2022/09/10 02:49:55;;;;;;;2.90;2.07;;;20.50;57.00;;;;;;5011379;28;20481;-85
2022/09/10 02:52:23;;;;;;;2.30;1.70;;;20.50;56.90;;;;;;5021140;28;20473;-87
2022/09/10 02:54:51;;;;;;;2.53;1.60;;;20.50;56.90;;;;;;5023299;28;20453;-84
2022/09/10 02:57:17;;;;;;;2.13;1.50;;;20.50;56.60;;;;;;5044697;28;20497;-86
2022/09/10 02:59:44;;;;;;;1.83;1.47;;;20.50;56.60;;;;;;5038321;28;20537;-86
2022/09/10 03:02:11;;;;;;;2.10;2.00;;;20.60;56.70;;;;;;5023431;28;20524;-86
2022/09/10 03:04:40;;;;;;;1.87;1.40;;;20.70;56.60;;;;;;5009342;28;20442;-85
2022/09/10 03:07:07;;;;;;;2.60;1.83;;;20.80;56.50;;;;;;5042474;28;20518;-85
2022/09/10 03:09:34;;;;;;;2.70;1.47;;;20.90;56.40;;;;;;5026926;28;20473;-85
2022/09/10 03:12:01;;;;;;;3.57;1.40;;;20.90;56.20;;;;;;5045686;28;20491;-85
2022/09/10 03:14:31;;;;;;;2.27;1.50;;;20.90;56.00;;;;;;5025104;28;20464;-85
2022/09/10 03:17:01;;;;;;;2.00;1.50;;;20.90;56.10;;;;;;5034729;28;20508;-85
2022/09/10 03:19:30;;;;;;;3.03;2.37;;;20.90;56.10;;;;;;5044897;28;20468;-85
2022/09/10 03:21:59;;;;;;;3.00;1.70;;;20.90;56.20;;;;;;5041645;28;20451;-85
2022/09/10 03:24:27;;;;;;;1.60;1.50;;;20.90;56.00;;;;;;5063503;28;20943;-85
2022/09/10 03:26:54;;;;;;;2.90;1.80;;;20.80;55.70;;;;;;5036439;28;20467;-85
2022/09/10 03:29:23;;;;;;;4.07;1.63;;;20.90;55.90;;;;;;5045824;28;21085;-85
2022/09/10 03:31:50;;;;;;;3.80;1.80;;;21.00;55.80;;;;;;5040846;28;20452;-84
2022/09/10 03:34:19;;;;;;;3.73;1.40;;;21.00;55.70;;;;;;5040202;28;20460;-86
2022/09/10 03:36:47;;;;;;;4.10;1.60;;;21.00;55.70;;;;;;5046470;28;20474;-86
2022/09/10 03:39:17;;;;;;;4.03;1.60;;;21.00;55.70;;;;;;5041981;28;20479;-85
2022/09/10 03:41:45;;;;;;;1.70;1.60;;;20.90;55.60;;;;;;5017204;28;20843;-85
2022/09/10 03:44:13;;;;;;;2.10;1.50;;;20.90;56.00;;;;;;5044817;28;20479;-85
2022/09/10 03:46:41;;;;;;;2.80;1.67;;;20.90;55.90;;;;;;5035452;28;20458;-85
2022/09/10 03:49:09;;;;;;;5.10;1.73;;;20.80;55.70;;;;;;5043215;28;20531;-86
2022/09/10 03:51:36;;;;;;;2.87;1.70;;;20.60;56.40;;;;;;5044197;28;20463;-87
2022/09/10 03:54:04;;;;;;;3.67;2.07;;;20.60;56.60;;;;;;5039197;28;21118;-85
2022/09/10 03:56:34;;;;;;;1.67;1.57;;;20.20;57.60;;;;;;5031029;28;20528;-85
2022/09/10 03:59:01;;;;;;;1.90;1.70;;;20.30;57.40;;;;;;5039320;28;20471;-85
2022/09/10 04:01:28;;;;;;;5.13;1.70;;;20.40;57.10;;;;;;5049545;28;20449;-86
2022/09/10 04:03:56;;;;;;;2.50;1.67;;;20.40;57.30;;;;;;5048200;28;20487;-85
2022/09/10 04:06:25;;;;;;;2.03;1.67;;;20.40;57.10;;;;;;5047410;28;20956;-86
2022/09/10 04:08:52;;;;;;;2.57;1.60;;;20.50;57.00;;;;;;5031582;28;20928;-85
2022/09/10 04:11:26;;;;;;;1.50;1.40;;;20.60;56.70;;;;;;5043749;28;20476;-87
2022/09/10 04:13:55;;;;;;;1.97;1.50;;;20.50;57.00;;;;;;5034074;28;20574;-86
2022/09/10 04:16:23;;;;;;;1.60;1.50;;;20.50;57.30;;;;;;5046243;28;20455;-85
2022/09/10 04:18:50;;;;;;;2.07;1.40;;;20.30;57.70;;;;;;5038361;28;20477;-84
2022/09/10 04:21:17;;;;;;;1.87;1.40;;;20.30;58.00;;;;;;5052309;28;21218;-84
2022/09/10 04:23:47;;;;;;;2.87;2.00;;;20.10;58.30;;;;;;5032508;28;20531;-85
2022/09/10 04:26:16;;;;;;;2.73;1.80;;;19.90;58.80;;;;;;5054873;28;20487;-85
2022/09/10 04:28:44;;;;;;;2.00;1.77;;;20.00;58.50;;;;;;5015267;28;20468;-85
2022/09/10 04:31:13;;;;;;;1.70;1.53;;;20.00;58.50;;;;;;5042977;28;20548;-86
2022/09/10 04:33:41;;;;;;;2.93;2.30;;;20.20;57.90;;;;;;5066926;28;20472;-86
2022/09/10 04:36:08;;;;;;;2.43;2.07;;;20.40;57.90;;;;;;5043731;28;20563;-86
2022/09/10 04:38:40;;;;;;;4.87;1.80;;;20.40;57.60;;;;;;5033682;28;21000;-85
2022/09/10 04:41:08;;;;;;;1.87;1.77;;;20.40;57.60;;;;;;5052181;28;20455;-84
2022/09/10 04:43:37;;;;;;;1.87;1.70;;;20.40;57.80;;;;;;5064014;28;20449;-85
2022/09/10 04:46:05;;;;;;;2.37;2.13;;;20.40;57.70;;;;;;5037660;28;20857;-86
2022/09/10 04:48:34;;;;;;;4.00;1.70;;;20.20;58.30;;;;;;5045991;28;20469;-85
2022/09/10 04:51:01;;;;;;;2.10;2.00;;;20.10;58.30;;;;;;5017190;28;20446;-86
2022/09/10 04:53:30;;;;;;;2.40;2.20;;;20.20;58.40;;;;;;5064154;28;20476;-85
2022/09/10 04:55:57;;;;;;;2.47;2.20;;;20.20;58.40;;;;;;5050489;28;20464;-85
2022/09/10 04:58:25;;;;;;;4.00;2.80;;;20.30;58.30;;;;;;5043950;28;20467;-85
2022/09/10 05:00:52;;;;;;;3.10;2.50;;;20.40;58.10;;;;;;5033931;28;20506;-85
2022/09/10 05:03:20;;;;;;;2.70;2.50;;;20.50;57.80;;;;;;5048112;28;20523;-84
2022/09/10 05:05:49;;;;;;;3.47;2.67;;;20.50;57.50;;;;;;5029889;28;20457;-84
2022/09/10 05:08:17;;;;;;;2.97;2.30;;;20.50;57.60;;;;;;5028687;28;20478;-85
2022/09/10 05:10:50;;;;;;;2.30;2.20;;;20.60;57.30;;;;;;5029234;28;20457;-85
2022/09/10 05:13:18;;;;;;;3.77;2.03;;;20.70;57.40;;;;;;5030461;28;20469;-87
2022/09/10 05:15:45;;;;;;;5.53;2.20;;;20.70;57.30;;;;;;5033070;28;21058;-85
2022/09/10 05:18:15;;;;;;;2.83;2.63;;;20.80;57.40;;;;;;5018651;28;20550;-83
2022/09/10 05:20:43;;;;;;;4.03;2.90;;;20.80;57.10;;;;;;5050703;28;20455;-86
2022/09/10 05:23:12;;;;;;;2.57;2.37;;;20.80;57.10;;;;;;5048128;28;20445;-86
2022/09/10 05:25:40;;;;;;;4.00;2.33;;;20.80;57.20;;;;;;5012958;28;20470;-84
2022/09/10 05:28:08;;;;;;;3.60;2.77;;;20.90;57.20;;;;;;5011358;28;20518;-86
2022/09/10 05:30:35;;;;;;;2.47;2.37;;;21.00;57.20;;;;;;5048202;28;20448;-85
2022/09/10 05:33:03;;;;;;;2.67;2.47;;;21.00;57.00;;;;;;5027349;28;21168;-86
2022/09/10 05:35:32;;;;;;;2.53;2.33;;;21.00;56.90;;;;;;5026925;28;20567;-85
2022/09/10 05:38:00;;;;;;;2.70;2.50;;;21.00;56.90;;;;;;5043549;28;20992;-86
2022/09/10 05:40:29;;;;;;;4.47;2.30;;;20.90;57.00;;;;;;5043124;28;20945;-86
2022/09/10 05:42:57;;;;;;;2.10;2.00;;;21.00;57.00;;;;;;5043746;28;20456;-85
2022/09/10 05:45:24;;;;;;;2.73;2.33;;;21.10;57.20;;;;;;5056016;28;21044;-85
2022/09/10 05:47:51;;;;;;;2.87;2.47;;;21.10;57.10;;;;;;5044018;28;20448;-86
2022/09/10 05:50:22;;;;;;;3.03;2.50;;;21.00;56.80;;;;;;5028175;28;20875;-86
2022/09/10 05:52:50;;;;;;;3.83;2.80;;;20.90;57.30;;;;;;5028717;28;20477;-85
2022/09/10 05:55:18;;;;;;;2.73;2.50;;;21.00;57.20;;;;;;5016622;28;20455;-85
2022/09/10 05:57:48;;;;;;;2.90;2.20;;;21.00;57.10;;;;;;5045228;28;20448;-85
2022/09/10 06:00:18;;;;;;;2.73;2.50;;;21.10;56.70;;;;;;5028163;28;20539;-85
2022/09/10 06:02:53;;;;;;;4.93;2.70;;;20.80;57.30;;;;;;5044495;28;20509;-85
2022/09/10 06:05:27;;;;;;;3.30;2.20;;;20.80;57.70;;;;;;5036306;28;20506;-86
2022/09/10 06:07:55;;;;;;;2.93;2.40;;;20.80;57.30;;;;;;5044669;28;20445;-85
2022/09/10 06:10:22;;;;;;;3.83;2.23;;;20.90;57.30;;;;;;5049984;28;20820;-85
2022/09/10 06:12:52;;;;;;;2.93;2.70;;;20.90;57.20;;;;;;5039844;28;20885;-86
2022/09/10 06:15:21;;;;;;;2.80;2.20;;;20.90;57.30;;;;;;5032640;28;20457;-83
2022/09/10 06:17:54;;;;;;;2.43;2.20;;;21.00;57.20;;;;;;5046684;28;20460;-86
2022/09/10 06:20:22;;;;;;;2.90;2.60;;;20.90;57.50;;;;;;5042640;28;21016;-85
2022/09/10 06:22:50;;;;;;;2.90;2.17;;;20.90;57.70;;;;;;5038954;28;20453;-85
2022/09/10 06:25:17;;;;;;;4.00;2.50;;;20.80;58.10;;;;;;5047720;28;20547;-88
2022/09/10 06:27:45;;;;;;;3.00;2.30;;;20.70;58.40;;;;;;5035111;28;20448;-87
2022/09/10 06:30:14;;;;;;;3.20;2.27;;;20.70;58.80;;;;;;5048083;28;20484;-87
2022/09/10 06:32:44;;;;;;;3.77;2.63;;;20.70;59.20;;;;;;5019058;28;20437;-85
2022/09/10 06:35:12;;;;;;;6.50;3.80;;;20.80;59.10;;;;;;5024235;28;21000;-85
2022/09/10 06:37:39;;;;;;;3.33;2.77;;;20.80;58.90;;;;;;5029399;28;20560;-87
2022/09/10 06:40:09;;;;;;;3.77;3.07;;;20.80;59.10;;;;;;5042869;28;20548;-87
2022/09/10 06:42:37;;;;;;;3.30;3.00;;;20.90;58.50;;;;;;5039408;28;20454;-87
2022/09/10 06:45:14;;;;;;;5.73;2.40;;;21.00;58.90;;;;;;5061135;28;20502;-87
2022/09/10 06:48:00;;;;;;;2.43;2.20;;;21.10;58.80;;;;;;5036132;28;21003;-86
2022/09/10 06:50:35;;;;;;;2.40;2.20;;;21.00;59.10;;;;;;5032080;28;20555;-86
2022/09/10 06:53:03;;;;;;;3.13;2.10;;;20.80;59.20;;;;;;5047911;28;20453;-87
2022/09/10 06:55:30;;;;;;;2.40;2.10;;;20.60;60.10;;;;;;5042234;28;20468;-86
2022/09/10 06:57:59;;;;;;;4.70;2.47;;;20.70;60.60;;;;;;5028010;28;20457;-86
2022/09/10 07:00:31;;;;;;;4.33;2.90;;;20.70;60.00;;;;;;5028514;28;20457;-86
2022/09/10 07:03:01;;;;;;;5.33;2.47;;;20.60;61.10;;;;;;5059325;28;20433;-87
2022/09/10 07:05:28;;;;;;;2.43;2.33;;;20.70;61.10;;;;;;5027691;28;21085;-86
2022/09/10 07:07:56;;;;;;;5.80;2.60;;;20.80;60.30;;;;;;5061546;28;20480;-88
2022/09/10 07:10:23;;;;;;;2.33;2.13;;;20.80;60.50;;;;;;5057679;28;20459;-86
2022/09/10 07:12:51;;;;;;;3.13;2.77;;;20.90;60.60;;;;;;5060209;28;20456;-85
2022/09/10 07:15:21;;;;;;;2.43;2.30;;;21.00;60.40;;;;;;5020743;28;20460;-86
2022/09/10 07:17:49;;;;;;;2.83;2.53;;;21.10;60.00;;;;;;5042672;28;20458;-86
2022/09/10 07:20:16;;;;;;;2.53;2.33;;;21.10;59.40;;;;;;5024451;28;20965;-87
2022/09/10 07:22:48;;;;;;;5.07;2.27;;;21.10;59.70;;;;;;5011094;28;20456;-85
2022/09/10 07:25:17;;;;;;;2.33;2.23;;;21.10;60.30;;;;;;5025505;28;20449;-86
2022/09/10 07:28:00;;;;;;;2.00;1.90;;;21.00;60.10;;;;;;5023512;28;20834;-86
2022/09/10 07:30:29;;;;;;;3.97;2.20;;;20.90;60.40;;;;;;5047622;28;20456;-85
2022/09/10 07:32:58;;;;;;;2.20;2.00;;;20.70;61.50;;;;;;5047049;28;21124;-85
2022/09/10 07:35:28;;;;;;;3.13;2.20;;;20.90;61.20;;;;;;5029615;28;20463;-85
2022/09/10 07:37:55;;;;;;;2.10;1.97;;;21.10;61.10;;;;;;5025529;28;20447;-84
2022/09/10 07:40:22;;;;;;;2.07;1.87;;;21.40;59.30;;;;;;5045388;28;20449;-84
2022/09/10 07:42:51;;;;;;;3.10;1.90;;;21.10;60.10;;;;;;5033958;28;20826;-85
2022/09/10 07:45:18;;;;;;;2.40;1.70;;;21.10;59.70;;;;;;5024935;28;20475;-85
2022/09/10 07:47:47;;;;;;;1.87;1.70;;;21.10;60.20;;;;;;5043199;28;20457;-84
2022/09/10 07:50:15;;;;;;;1.87;1.60;;;21.00;59.90;;;;;;5061643;28;20543;-85
2022/09/10 07:52:42;;;;;;;2.33;1.90;;;21.10;59.90;;;;;;5017153;28;20544;-86
2022/09/10 07:55:10;;;;;;;2.50;1.97;;;21.30;60.00;;;;;;5026281;28;20468;-85
2022/09/10 07:57:39;;;;;;;12.73;3.10;;;21.50;59.80;;;;;;5044348;28;21010;-84
2022/09/10 08:00:13;;;;;;;2.03;1.90;;;21.60;59.70;;;;;;5026102;28;20994;-86
2022/09/10 08:02:46;;;;;;;3.07;2.50;;;21.50;60.20;;;;;;5060317;28;20453;-86
2022/09/10 08:05:19;;;;;;;5.13;2.37;;;21.30;59.80;;;;;;5008410;28;20463;-86
2022/09/10 08:07:46;;;;;;;1.60;1.50;;;21.10;60.40;;;;;;5043647;28;20456;-86
2022/09/10 08:10:13;;;;;;;1.60;1.37;;;20.90;60.90;;;;;;5051957;28;20943;-86
2022/09/10 08:12:42;;;;;;;2.10;1.97;;;20.80;61.50;;;;;;5045656;28;20451;-86
2022/09/10 08:15:10;;;;;;;1.50;1.40;;;20.90;62.10;;;;;;5039267;28;20477;-86
2022/09/10 08:17:39;;;;;;;2.07;1.40;;;20.80;62.40;;;;;;5038301;28;20461;-85
2022/09/10 08:20:09;;;;;;;1.77;1.67;;;20.70;62.90;;;;;;5033295;28;20457;-87
2022/09/10 08:22:39;;;;;;;1.80;1.70;;;20.70;63.10;;;;;;5041709;28;20935;-87
2022/09/10 08:25:08;;;;;;;2.37;1.50;;;20.90;63.10;;;;;;4998607;28;20460;-86
2022/09/10 08:27:36;;;;;;;3.33;1.50;;;20.90;62.40;;;;;;5031726;28;20484;-85
2022/09/10 08:30:06;;;;;;;1.73;1.63;;;20.90;62.50;;;;;;5011284;28;20447;-86
2022/09/10 08:32:34;;;;;;;1.73;1.37;;;20.90;62.80;;;;;;5027059;28;23040;-87
2022/09/10 08:35:03;;;;;;;2.30;1.43;;;20.90;62.40;;;;;;5044471;28;20853;-88
2022/09/10 08:37:32;;;;;;;2.27;1.40;;;20.60;62.60;;;;;;5030086;28;20542;-85
2022/09/10 08:40:00;;;;;;;1.50;1.30;;;20.70;63.10;;;;;;5011589;28;20999;-85
2022/09/10 08:42:38;;;;;;;1.90;1.70;;;20.70;62.60;;;;;;5030513;28;20451;-86
2022/09/10 08:45:13;;;;;;;1.97;1.50;;;20.70;62.80;;;;;;5005315;28;20853;-85
2022/09/10 08:47:48;;;;;;;1.63;1.50;;;20.70;62.90;;;;;;5032311;28;20805;-85
2022/09/10 08:50:26;;;;;;;1.40;1.30;;;20.60;62.50;;;;;;5003374;28;20456;-85
2022/09/10 08:52:57;;;;;;;2.27;1.50;;;20.50;63.30;;;;;;5049450;28;20547;-85
2022/09/10 08:55:32;;;;;;;1.70;1.60;;;20.60;63.40;;;;;;5033536;28;20468;-86
2022/09/10 08:58:05;;;;;;;2.93;1.40;;;20.70;64.20;;;;;;5045905;28;21587;-85
2022/09/10 09:00:37;;;;;;;1.67;1.57;;;20.80;64.20;;;;;;5060859;28;20959;-85
2022/09/10 09:03:18;;;;;;;1.57;1.47;;;20.90;64.20;;;;;;5030514;28;20480;-86
2022/09/10 09:05:47;;;;;;;1.97;1.77;;;21.20;63.70;;;;;;5017257;28;20448;-85
2022/09/10 09:08:17;;;;;;;3.47;1.80;;;21.40;63.80;;;;;;5043946;28;20478;-86
2022/09/10 09:10:49;;;;;;;2.10;1.57;;;21.60;63.30;;;;;;5020296;28;20511;-86
2022/09/10 09:13:51;;;;;;;2.60;1.60;;;21.60;62.80;;;;;;5046150;28;20449;-87
2022/09/10 09:16:31;;;;;;;2.97;1.60;;;21.70;62.80;;;;;;5019627;28;20484;-86
2022/09/10 09:19:09;;;;;;;1.77;1.40;;;21.70;62.20;;;;;;5030150;28;20467;-86
2022/09/10 09:21:49;;;;;;;3.50;1.60;;;21.80;61.70;;;;;;5036092;28;21018;-88
2022/09/10 09:24:22;;;;;;;5.83;2.50;;;21.60;62.10;;;;;;5045321;28;20452;-85
2022/09/10 09:27:00;;;;;;;2.30;2.00;;;21.50;61.50;;;;;;5032198;28;20989;-84
2022/09/10 09:29:33;;;;;;;6.43;2.00;;;21.40;61.50;;;;;;5046873;28;21491;-86
2022/09/10 09:32:05;;;;;;;5.20;1.50;;;21.40;62.60;;;;;;5044700;28;20463;-85
2022/09/10 09:34:37;;;;;;;2.40;1.53;;;21.50;62.70;;;;;;5032247;28;20468;-86
2022/09/10 09:37:16;;;;;;;2.83;2.20;;;21.50;62.10;;;;;;5017455;28;20559;-87
2022/09/10 09:39:56;;;;;;;2.70;1.83;;;21.50;62.70;;;;;;5032552;28;20598;-87
2022/09/10 09:42:31;;;;;;;4.03;2.10;;;21.40;62.30;;;;;;5022730;28;20844;-86
2022/09/10 09:45:06;;;;;;;2.77;2.53;;;21.60;62.10;;;;;;5011725;28;20984;-86
2022/09/10 09:47:33;;;;;;;2.50;2.07;;;21.80;62.80;;;;;;5023791;28;20497;-87
2022/09/10 09:50:00;;;;;;;3.47;1.90;;;21.80;61.60;;;;;;5043207;28;20488;-85
2022/09/10 09:52:30;;;;;;;2.10;1.67;;;21.90;62.10;;;;;;5045357;28;20538;-87
2022/09/10 09:55:01;;;;;;;5.97;1.90;;;22.00;61.60;;;;;;5027644;28;20478;-85
2022/09/10 09:57:30;;;;;;;2.07;1.53;;;22.20;60.60;;;;;;5046746;28;20437;-85
2022/09/10 09:59:58;;;;;;;7.83;2.47;;;22.30;60.70;;;;;;5063398;28;20522;-85
2022/09/10 10:02:29;;;;;;;4.00;1.87;;;22.20;59.30;;;;;;5031621;28;20475;-85
2022/09/10 10:05:04;;;;;;;6.60;2.93;;;22.10;60.10;;;;;;5066810;28;20475;-86
2022/09/10 10:07:33;;;;;;;2.17;1.77;;;22.10;60.40;;;;;;5062973;28;20440;-85
2022/09/10 10:10:01;;;;;;;8.40;2.73;;;21.90;59.70;;;;;;5046410;28;20468;-86
2022/09/10 10:12:31;;;;;;;2.30;2.10;;;21.90;60.30;;;;;;5069092;28;20444;-87
2022/09/10 10:14:59;;;;;;;4.03;2.50;;;21.70;61.10;;;;;;5042130;28;20466;-88
2022/09/10 10:17:33;;;;;;;2.47;2.27;;;21.80;61.10;;;;;;5059913;28;20441;-86
2022/09/10 10:20:04;;;;;;;4.33;2.50;;;21.80;60.70;;;;;;5063312;28;20468;-86
2022/09/10 10:22:32;;;;;;;7.03;2.07;;;22.00;60.40;;;;;;5064629;28;20438;-86
2022/09/10 10:25:00;;;;;;;1.93;1.83;;;22.10;60.20;;;;;;5046292;28;20502;-86
2022/09/10 10:27:32;;;;;;;3.20;2.20;;;22.10;59.20;;;;;;5062273;28;20464;-89
2022/09/10 10:30:02;;;;;;;3.10;1.90;;;22.20;58.90;;;;;;5065789;28;20472;-85
2022/09/10 10:32:43;;;;;;;3.33;1.63;;;22.20;59.20;;;;;;5062176;28;20452;-85
2022/09/10 10:35:28;;;;;;;2.27;1.77;;;22.40;59.20;;;;;;5049719;28;20507;-86
2022/09/10 10:38:13;;;;;;;1.90;1.63;;;22.40;58.70;;;;;;5062570;28;20503;-86
2022/09/10 10:40:47;;;;;;;7.97;2.10;;;21.90;58.10;;;;;;5048852;28;20442;-86
2022/09/10 10:43:26;;;;;;;6.20;1.93;;;21.60;58.20;;;;;;5054634;28;20511;-85
2022/09/10 10:46:00;;;;;;;8.23;1.57;;;21.30;58.20;;;;;;5060436;28;20440;-87
2022/09/10 10:48:37;;;;;;;4.40;1.60;;;21.20;58.80;;;;;;5060171;28;20568;-86
2022/09/10 10:51:13;;;;;;;6.40;2.13;;;21.30;58.80;;;;;;5062138;28;20928;-86
2022/09/10 10:54:06;;;;;;;3.67;1.97;;;21.30;59.10;;;;;;5053735;28;20480;-86
2022/09/10 10:56:40;;;;;;;2.23;1.70;;;21.40;57.90;;;;;;5005132;28;20859;-86
2022/09/10 10:59:28;;;;;;;4.13;1.70;;;21.50;57.60;;;;;;5061985;28;20560;-88
2022/09/10 11:02:13;;;;;;;2.40;1.90;;;21.60;56.20;;;;;;5045120;28;20445;-86
2022/09/10 11:04:45;;;;;;;2.87;1.83;;;21.80;56.90;;;;;;5061486;28;20432;-86
2022/09/10 11:07:18;;;;;;;2.90;2.20;;;22.00;56.20;;;;;;5065028;28;20451;-87
2022/09/10 11:09:51;;;;;;;2.70;1.53;;;22.20;56.60;;;;;;5063000;28;20827;-87
2022/09/10 11:12:25;;;;;;;2.70;1.93;;;22.40;55.60;;;;;;5065179;28;20839;-87
2022/09/10 11:14:58;;;;;;;3.23;2.07;;;22.40;54.80;;;;;;5042254;28;20979;-86
2022/09/10 11:17:29;;;;;;;2.40;1.80;;;22.50;55.60;;;;;;5043439;28;20976;-86
2022/09/10 11:20:07;;;;;;;1.93;1.70;;;22.40;55.30;;;;;;5043090;28;20990;-85
2022/09/10 11:22:38;;;;;;;6.47;1.90;;;22.50;54.90;;;;;;5042562;28;20675;-86
2022/09/10 11:25:18;;;;;;;2.70;2.03;;;22.60;55.00;;;;;;5057795;28;20445;-85
2022/09/10 11:27:49;;;;;;;5.30;1.50;;;22.50;54.60;;;;;;5061132;28;20459;-86
2022/09/10 11:30:18;;;;;;;14.90;2.00;;;22.50;54.90;;;;;;5062817;28;21032;-88
2022/09/10 11:32:51;;;;;;;6.43;1.80;;;22.40;54.30;;;;;;5055538;28;20577;-87
2022/09/10 11:35:23;;;;;;;9.10;2.30;;;22.60;54.70;;;;;;5044316;28;20501;-87
2022/09/10 11:38:11;;;;;;;2.20;1.40;;;22.50;54.50;;;;;;5044435;28;20682;-86
2022/09/10 11:40:43;;;;;;;6.63;1.97;;;22.40;54.20;;;;;;5060879;28;20778;-85
2022/09/10 11:43:12;;;;;;;3.70;1.70;;;22.40;54.10;;;;;;5043743;28;21214;-86
2022/09/10 11:45:46;;;;;;;3.50;1.70;;;22.40;54.70;;;;;;5041974;28;20675;-85
2022/09/10 11:48:23;;;;;;;3.47;2.50;;;22.40;54.20;;;;;;5058300;28;20481;-86
2022/09/10 11:50:54;;;;;;;2.50;1.60;;;22.40;55.90;;;;;;5056463;28;20452;-86
2022/09/10 11:53:24;;;;;;;4.60;1.90;;;22.30;55.10;;;;;;5019030;28;20520;-87
2022/09/10 11:56:21;;;;;;;2.70;1.63;;;22.20;54.60;;;;;;5030765;28;20518;-84
2022/09/10 11:58:57;;;;;;;3.83;1.63;;;22.10;54.90;;;;;;5038709;28;20497;-86
2022/09/10 12:01:40;;;;;;;2.20;1.50;;;22.30;53.90;;;;;;5039537;28;20449;-86
2022/09/10 12:04:33;;;;;;;2.17;1.60;;;22.40;53.90;;;;;;5060286;28;20453;-85
2022/09/10 12:07:10;;;;;;;3.63;1.73;;;22.60;54.10;;;;;;5062722;28;20453;-86
2022/09/10 12:09:48;;;;;;;1.87;1.73;;;22.60;53.30;;;;;;5041672;28;20472;-86
2022/09/10 12:12:22;;;;;;;1.77;1.67;;;22.50;53.20;;;;;;5039371;28;20456;-86
2022/09/10 12:14:49;;;;;;;4.10;1.60;;;22.70;54.40;;;;;;5063127;28;20472;-88
2022/09/10 12:17:26;;;;;;;1.53;1.43;;;22.90;54.30;;;;;;5041806;28;20463;-88
2022/09/10 12:19:55;;;;;;;3.43;1.60;;;22.90;52.80;;;;;;5063240;28;21070;-87
2022/09/10 12:22:28;;;;;;;2.27;1.40;;;23.10;52.80;;;;;;5067856;28;20467;-88
2022/09/10 12:24:59;;;;;;;3.40;1.50;;;23.30;52.20;;;;;;5044907;28;20970;-87
2022/09/10 12:27:44;;;;;;;1.70;1.30;;;23.30;52.20;;;;;;5060183;28;20451;-85
2022/09/10 12:30:59;;;;;;;3.73;1.30;;;23.30;52.00;;;;;;5045846;28;20501;-86
2022/09/10 12:34:08;;;;;;;3.30;1.30;;;23.20;52.20;;;;;;5026934;28;20542;-87
2022/09/10 12:37:15;;;;;;;3.20;1.70;;;22.90;55.20;;;;;;5048307;28;20476;-86
2022/09/10 12:39:43;;;;;;;1.63;1.53;;;22.50;57.00;;;;;;5032299;28;20462;-85
2022/09/10 12:42:26;;;;;;;2.10;1.50;;;22.20;58.10;;;;;;5063476;28;20527;-87
2022/09/10 12:44:53;;;;;;;5.10;2.03;;;22.10;59.40;;;;;;5062794;28;20987;-86
2022/09/10 12:47:51;;;;;;;2.67;1.73;;;21.90;61.30;;;;;;5065905;28;20442;-86
2022/09/10 12:50:45;;;;;;;1.63;1.53;;;21.80;61.60;;;;;;4991711;28;20448;-86
2022/09/10 12:53:47;;;;;;;1.50;1.40;;;21.80;62.60;;;;;;5045919;28;20472;-87
2022/09/10 12:56:39;;;;;;;2.07;1.90;;;21.40;62.50;;;;;;5033516;28;20558;-85
2022/09/10 12:59:34;;;;;;;5.03;1.40;;;21.40;62.80;;;;;;5030253;28;20464;-86
2022/09/10 13:02:01;;;;;;;3.83;1.77;;;21.50;63.20;;;;;;5029011;28;20439;-86
2022/09/10 13:04:33;;;;;;;2.13;1.93;;;21.80;63.70;;;;;;5045937;28;20455;-86
2022/09/10 13:07:05;;;;;;;3.00;1.70;;;22.30;63.80;;;;;;5063405;28;20453;-89
2022/09/10 13:09:37;;;;;;;3.03;1.47;;;22.70;61.70;;;;;;5042187;28;20486;-89
2022/09/10 13:12:16;;;;;;;2.63;1.50;;;23.10;61.10;;;;;;5010795;28;21189;-87
2022/09/10 13:14:47;;;;;;;2.03;1.80;;;23.10;60.10;;;;;;5005030;28;20504;-86